createdAt,value
2019-04-14T00:01:09.313Z,66.40
2019-04-14T00:03:45.492Z,64.10
2019-04-14T00:06:14.287Z,63.45
2019-04-14T00:08:43.758Z,63.23
2019-04-14T00:11:12.638Z,61.05
2019-04-14T00:13:41.373Z,69.03
2019-04-14T00:16:10.020Z,67.35
2019-04-14T00:18:38.683Z,72.22
2019-04-14T00:21:07.222Z,73.40
2019-04-14T00:23:36.980Z,73.50
2019-04-14T00:26:24.990Z,69.50
2019-04-14T00:28:53.997Z,78.05
2019-04-14T00:31:23.884Z,73.37
2019-04-14T00:33:54.292Z,83.90
2019-04-14T00:36:52.313Z,82.42
2019-04-14T00:39:25.035Z,75.75
2019-04-14T00:42:03.046Z,73.25
2019-04-14T00:44:53.822Z,73.83
2019-04-14T00:47:29.119Z,72.03
2019-04-14T00:49:57.762Z,73.00
2019-04-14T00:52:27.673Z,75.08
2019-04-14T00:54:56.723Z,69.77
2019-04-14T00:57:25.550Z,79.15
2019-04-14T00:59:55.559Z,74.47
2019-04-14T01:02:25.334Z,78.33
2019-04-14T01:04:54.138Z,79.45
2019-04-14T01:07:24.148Z,96.12
2019-04-14T01:09:53.231Z,83.27
2019-04-14T01:12:21.864Z,77.40
2019-04-14T01:14:51.673Z,75.08
2019-04-14T01:17:20.566Z,76.30
2019-04-14T01:19:50.529Z,78.75
2019-04-14T01:22:20.546Z,79.80
2019-04-14T01:24:49.321Z,83.27
2019-04-14T01:27:18.874Z,73.60
2019-04-14T01:29:47.521Z,71.90
2019-04-14T01:32:17.541Z,66.20
2019-04-14T01:34:46.232Z,70.10
2019-04-14T01:37:15.848Z,60.08
2019-04-14T01:39:44.575Z,71.97
2019-04-14T01:42:13.803Z,62.65
2019-04-14T01:44:42.446Z,59.60
2019-04-14T01:47:11.639Z,60.65
2019-04-14T01:49:40.398Z,56.85
2019-04-14T01:52:21.005Z,55.20
2019-04-14T01:55:09.204Z,51.08
2019-04-14T01:57:57.511Z,54.42
2019-04-14T02:00:42.314Z,53.70
2019-04-14T02:03:11.029Z,59.35
2019-04-14T02:05:40.712Z,52.35
2019-04-14T02:08:09.455Z,50.70
2019-04-14T02:10:39.212Z,48.48
2019-04-14T02:13:09.184Z,56.30
2019-04-14T02:15:37.863Z,50.60
2019-04-14T02:18:07.698Z,46.02
2019-04-14T02:20:36.449Z,48.98
2019-04-14T02:23:06.131Z,46.48
2019-04-14T02:25:36.028Z,51.25
2019-04-14T02:28:04.872Z,57.53
2019-04-14T02:30:41.723Z,43.40
2019-04-14T02:33:40.166Z,54.23
2019-04-14T02:36:06.020Z,48.55
2019-04-14T02:41:02.479Z,52.90
2019-04-14T02:48:53.296Z,47.33
2019-04-14T02:51:05.804Z,52.65
2019-04-14T02:56:08.098Z,49.23
2019-04-14T02:58:48.350Z,53.78
2019-04-14T03:01:07.201Z,54.08
2019-04-14T03:06:10.322Z,55.15
2019-04-14T03:08:44.682Z,54.50
2019-04-14T03:11:12.004Z,53.55
2019-04-14T03:16:15.561Z,55.85
2019-04-14T03:18:58.249Z,57.17
2019-04-14T03:21:49.320Z,58.55
2019-04-14T03:24:30.797Z,55.50
2019-04-14T03:27:30.552Z,53.83
2019-04-14T03:33:13.501Z,57.00
2019-04-14T03:35:35.991Z,60.88
2019-04-14T03:40:13.854Z,60.65
2019-04-14T03:42:48.572Z,57.00
2019-04-14T03:45:16.717Z,55.92
2019-04-14T03:47:43.925Z,59.30
2019-04-14T03:50:13.693Z,64.17
2019-04-14T03:52:50.234Z,61.63
2019-04-14T03:55:09.368Z,64.17
2019-04-14T03:57:21.897Z,61.18
2019-04-14T03:59:50.525Z,66.17
2019-04-14T04:02:20.368Z,64.80
2019-04-14T04:04:49.115Z,61.10
2019-04-14T04:07:17.627Z,63.23
2019-04-14T04:09:54.227Z,67.20
2019-04-14T04:12:22.863Z,63.20
2019-04-14T04:14:51.568Z,63.20
2019-04-14T04:17:40.794Z,58.65
2019-04-14T04:20:47.749Z,59.83
2019-04-14T04:23:29.168Z,67.92
2019-04-14T04:26:06.176Z,66.12
2019-04-14T04:28:54.000Z,63.90
2019-04-14T04:31:41.713Z,63.50
2019-04-14T04:34:16.267Z,57.90
2019-04-14T04:37:01.724Z,58.85
2019-04-14T04:39:35.290Z,55.20
2019-04-14T04:42:04.824Z,57.15
2019-04-14T04:44:33.538Z,55.03
2019-04-14T04:47:03.405Z,52.65
2019-04-14T04:49:32.908Z,60.10
2019-04-14T04:52:03.991Z,56.35
2019-04-14T04:54:34.250Z,57.88
2019-04-14T04:57:03.165Z,51.75
2019-04-14T04:59:32.086Z,59.00
2019-04-14T05:02:00.702Z,58.50
2019-04-14T05:04:29.239Z,63.17
2019-04-14T05:06:59.742Z,66.35
2019-04-14T05:10:04.678Z,61.70
2019-04-14T05:12:54.280Z,57.78
2019-04-14T05:15:33.420Z,57.73
2019-04-14T05:18:02.792Z,76.92
2019-04-14T05:20:31.563Z,62.38
2019-04-14T05:23:01.486Z,60.50
2019-04-14T05:25:30.233Z,53.58
2019-04-14T05:27:58.849Z,59.25
2019-04-14T05:30:28.485Z,63.55
2019-04-14T05:32:58.430Z,62.55
2019-04-14T05:35:27.689Z,54.50
2019-04-14T05:37:57.326Z,57.75
2019-04-14T05:40:25.950Z,61.77
2019-04-14T05:42:54.478Z,53.10
2019-04-14T05:45:24.083Z,62.35
2019-04-14T05:47:54.264Z,58.38
2019-04-14T05:50:23.030Z,52.58
2019-04-14T05:52:51.563Z,54.30
2019-04-14T05:55:20.202Z,62.55
2019-04-14T05:57:48.850Z,58.00
2019-04-14T06:00:19.161Z,53.87
2019-04-14T06:02:48.527Z,43.92
2019-04-14T06:05:17.310Z,44.00
2019-04-14T06:07:45.851Z,41.58
2019-04-14T06:10:14.574Z,44.83
2019-04-14T06:12:43.205Z,45.05
2019-04-14T06:15:12.009Z,55.35
2019-04-14T06:17:40.662Z,51.00
2019-04-14T06:20:09.489Z,47.53
2019-04-14T06:22:38.025Z,41.48
2019-04-14T06:25:07.178Z,38.60
2019-04-14T06:27:36.218Z,44.90
2019-04-14T06:30:27.086Z,43.55
2019-04-14T06:32:57.167Z,37.93
2019-04-14T06:35:43.808Z,38.55
2019-04-14T06:38:17.443Z,40.28
2019-04-14T06:40:53.957Z,43.73
2019-04-14T06:43:22.509Z,43.00
2019-04-14T06:45:51.017Z,54.20
2019-04-14T06:48:19.640Z,41.73
2019-04-14T06:50:48.377Z,41.92
2019-04-14T06:53:17.024Z,41.25
2019-04-14T06:55:45.547Z,35.73
2019-04-14T06:58:14.226Z,37.25
2019-04-14T07:00:42.735Z,37.03
2019-04-14T07:03:11.366Z,36.13
2019-04-14T07:05:39.905Z,35.60
2019-04-14T07:08:08.553Z,34.00
2019-04-14T07:10:37.119Z,39.60
2019-04-14T07:13:05.842Z,36.63
2019-04-14T07:15:34.344Z,43.00
2019-04-14T07:18:02.980Z,34.73
2019-04-14T07:20:31.529Z,38.98
2019-04-14T07:23:00.044Z,36.98
2019-04-14T07:25:28.591Z,36.95
2019-04-14T07:27:57.320Z,31.77
2019-04-14T07:30:44.009Z,31.48
2019-04-14T07:33:31.310Z,33.45
2019-04-14T07:36:22.116Z,33.25
2019-04-14T07:38:56.011Z,39.13
2019-04-14T07:41:30.265Z,38.10
2019-04-14T07:44:30.635Z,33.13
2019-04-14T07:47:24.452Z,31.35
2019-04-14T07:50:24.726Z,27.98
2019-04-14T07:53:09.973Z,32.53
2019-04-14T07:55:45.550Z,29.77
2019-04-14T07:58:27.305Z,31.37
2019-04-14T08:01:03.558Z,37.48
2019-04-14T08:04:06.659Z,36.25
2019-04-14T08:06:35.201Z,33.13
2019-04-14T08:09:05.875Z,35.20
2019-04-14T08:11:34.498Z,33.63
2019-04-14T08:14:03.545Z,34.98
2019-04-14T08:16:32.150Z,32.25
2019-04-14T08:19:00.772Z,28.60
2019-04-14T08:21:29.541Z,31.87
2019-04-14T08:23:58.099Z,30.17
2019-04-14T08:26:26.724Z,31.20
2019-04-14T08:28:55.289Z,28.15
2019-04-14T08:31:23.899Z,26.82
2019-04-14T08:33:52.528Z,29.95
2019-04-14T08:36:21.262Z,25.20
2019-04-14T08:38:49.783Z,23.32
2019-04-14T08:41:18.390Z,26.90
2019-04-14T08:44:09.081Z,28.67
2019-04-14T08:47:09.262Z,24.10
2019-04-14T08:49:45.520Z,24.60
2019-04-14T08:52:42.661Z,22.32
2019-04-14T08:55:34.653Z,25.10
2019-04-14T08:58:15.647Z,34.65
2019-04-14T09:00:59.567Z,23.00
2019-04-14T09:03:54.088Z,30.68
2019-04-14T09:06:33.593Z,23.40
2019-04-14T09:09:11.922Z,24.05
2019-04-14T09:11:45.714Z,25.60
2019-04-14T09:14:14.534Z,23.45
2019-04-14T09:16:43.182Z,22.85
2019-04-14T09:19:11.904Z,22.00
2019-04-14T09:21:40.541Z,27.02
2019-04-14T09:24:09.140Z,21.82
2019-04-14T09:26:37.605Z,20.80
2019-04-14T09:29:06.222Z,23.18
2019-04-14T09:31:34.867Z,24.75
2019-04-14T09:34:03.637Z,23.62
2019-04-14T09:36:32.152Z,21.70
2019-04-14T09:39:00.792Z,20.48
2019-04-14T09:41:29.319Z,20.30
2019-04-14T09:43:57.908Z,19.37
2019-04-14T09:46:26.528Z,26.97
2019-04-14T09:48:55.166Z,31.02
2019-04-14T09:51:23.778Z,20.17
2019-04-14T09:53:52.440Z,18.73
2019-04-14T09:56:21.103Z,23.45
2019-04-14T09:58:49.617Z,21.35
2019-04-14T10:01:18.139Z,20.02
2019-04-14T10:03:46.655Z,19.67
2019-04-14T10:06:15.416Z,25.48
2019-04-14T10:08:44.167Z,20.27
2019-04-14T10:11:12.807Z,22.30
2019-04-14T10:13:41.436Z,18.60
2019-04-14T10:16:09.954Z,19.98
2019-04-14T10:18:38.464Z,16.67
2019-04-14T10:21:16.788Z,19.50
2019-04-14T10:23:39.526Z,21.27
2019-04-14T10:26:08.146Z,19.35
2019-04-14T10:28:36.796Z,18.25
2019-04-14T10:31:05.428Z,18.05
2019-04-14T10:33:33.957Z,16.50
2019-04-14T10:36:02.674Z,16.80
2019-04-14T10:38:31.203Z,17.90
2019-04-14T10:40:59.847Z,16.60
2019-04-14T10:43:28.543Z,18.40
2019-04-14T10:45:57.347Z,17.62
2019-04-14T10:48:25.951Z,16.60
2019-04-14T10:50:54.584Z,20.35
2019-04-14T10:53:23.163Z,19.45
2019-04-14T10:55:51.784Z,18.30
2019-04-14T10:58:20.384Z,18.32
2019-04-14T11:00:49.152Z,21.57
2019-04-14T11:03:17.917Z,18.55
2019-04-14T11:06:06.107Z,17.45
2019-04-14T11:08:34.795Z,17.90
2019-04-14T11:11:03.903Z,19.57
2019-04-14T11:13:32.511Z,19.48
2019-04-14T11:16:01.040Z,17.50
2019-04-14T11:18:29.643Z,18.45
2019-04-14T11:20:58.424Z,24.18
2019-04-14T11:23:27.010Z,20.30
2019-04-14T11:25:55.533Z,18.95
2019-04-14T11:28:24.242Z,19.23
2019-04-14T11:30:52.997Z,20.30
2019-04-14T11:33:30.494Z,21.20
2019-04-14T11:36:21.612Z,19.95
2019-04-14T11:38:55.430Z,15.70
2019-04-14T11:41:24.017Z,19.02
2019-04-14T11:43:52.699Z,19.87
2019-04-14T11:46:21.331Z,19.00
2019-04-14T11:48:50.296Z,23.38
2019-04-14T11:51:18.923Z,19.37
2019-04-14T11:53:47.559Z,24.85
2019-04-14T11:56:16.192Z,19.52
2019-04-14T11:58:45.133Z,19.85
2019-04-14T12:01:30.859Z,18.77
2019-04-14T12:04:13.093Z,23.83
2019-04-14T12:07:01.517Z,19.75
2019-04-14T12:09:33.199Z,17.90
2019-04-14T12:12:02.173Z,20.72
2019-04-14T12:14:30.856Z,21.50
2019-04-14T12:16:59.379Z,23.95
2019-04-14T12:19:28.136Z,22.35
2019-04-14T12:22:07.602Z,27.80
2019-04-14T12:24:27.678Z,25.77
2019-04-14T12:26:56.402Z,22.22
2019-04-14T12:29:26.031Z,23.62
2019-04-14T12:31:55.289Z,22.75
2019-04-14T12:34:24.020Z,21.62
2019-04-14T12:36:52.718Z,20.17
2019-04-14T12:39:23.236Z,21.80
2019-04-14T12:41:57.868Z,25.52
2019-04-14T12:44:51.834Z,24.57
2019-04-14T12:47:40.364Z,20.75
2019-04-14T12:50:32.278Z,23.52
2019-04-14T12:53:00.897Z,23.83
2019-04-14T12:55:29.560Z,28.25
2019-04-14T12:58:01.046Z,20.90
2019-04-14T13:00:39.881Z,22.98
2019-04-14T13:03:11.380Z,26.82
2019-04-14T13:05:40.020Z,21.10
2019-04-14T13:08:08.575Z,22.30
2019-04-14T13:10:37.118Z,21.42
2019-04-14T13:13:05.977Z,21.48
2019-04-14T13:15:34.789Z,25.90
2019-04-14T13:18:03.753Z,23.92
2019-04-14T13:20:32.822Z,22.60
2019-04-14T13:23:01.640Z,22.67
2019-04-14T13:25:32.496Z,25.72
2019-04-14T13:28:01.328Z,22.07
2019-04-14T13:30:33.475Z,20.32
2019-04-14T13:33:02.303Z,21.97
2019-04-14T13:35:30.828Z,19.20
2019-04-14T13:37:59.470Z,18.55
2019-04-14T13:40:28.252Z,22.10
2019-04-14T13:42:56.888Z,19.77
2019-04-14T13:45:25.542Z,23.05
2019-04-14T13:47:54.245Z,22.75
2019-04-14T13:50:22.848Z,20.50
2019-04-14T13:52:51.367Z,20.68
2019-04-14T13:55:20.024Z,26.65
2019-04-14T13:57:48.536Z,22.48
2019-04-14T14:00:17.799Z,22.67
2019-04-14T14:02:46.422Z,23.32
2019-04-14T14:05:15.157Z,21.30
2019-04-14T14:07:43.785Z,20.45
2019-04-14T14:10:13.091Z,16.25
2019-04-14T14:13:16.507Z,25.92
2019-04-14T14:16:16.194Z,21.15
2019-04-14T14:18:49.491Z,17.15
2019-04-14T14:21:36.703Z,18.07
2019-04-14T14:24:36.980Z,20.52
2019-04-14T14:27:07.220Z,18.30
2019-04-14T14:29:35.731Z,18.00
2019-04-14T14:32:06.353Z,21.57
2019-04-14T14:34:35.145Z,24.90
2019-04-14T14:37:03.687Z,20.70
2019-04-14T14:39:32.287Z,20.27
2019-04-14T14:42:00.928Z,19.00
2019-04-14T14:44:46.850Z,18.57
2019-04-14T14:47:21.368Z,17.87
2019-04-14T14:50:16.560Z,22.80
2019-04-14T14:52:45.214Z,18.92
2019-04-14T14:55:13.838Z,15.85
2019-04-14T14:57:42.557Z,17.30
2019-04-14T15:00:27.620Z,18.55
2019-04-14T15:02:56.258Z,15.68
2019-04-14T15:05:24.887Z,17.75
2019-04-14T15:07:53.518Z,18.23
2019-04-14T15:10:22.035Z,18.75
2019-04-14T15:12:50.684Z,19.70
2019-04-14T15:15:19.317Z,20.57
2019-04-14T15:17:47.835Z,20.02
2019-04-14T15:20:16.640Z,20.85
2019-04-14T15:22:45.168Z,25.08
2019-04-14T15:25:13.898Z,19.77
2019-04-14T15:27:42.577Z,20.02
2019-04-14T15:30:16.443Z,19.12
2019-04-14T15:32:45.450Z,18.50
2019-04-14T15:35:14.063Z,17.15
2019-04-14T15:37:42.748Z,14.75
2019-04-14T15:40:11.497Z,18.17
2019-04-14T15:42:40.223Z,19.15
2019-04-14T15:45:10.033Z,18.20
2019-04-14T15:47:38.783Z,17.75
2019-04-14T15:50:07.597Z,17.87
2019-04-14T15:52:36.439Z,21.93
2019-04-14T15:55:05.279Z,20.30
2019-04-14T15:57:53.462Z,21.93
2019-04-14T16:00:36.203Z,24.98
2019-04-14T16:03:17.186Z,19.40
2019-04-14T16:05:59.363Z,21.55
2019-04-14T16:08:31.691Z,20.37
2019-04-14T16:11:16.909Z,19.37
2019-04-14T16:14:05.093Z,21.65
2019-04-14T16:16:43.724Z,18.65
2019-04-14T16:19:19.123Z,19.48
2019-04-14T16:23:32.628Z,20.50
2019-04-14T16:26:24.118Z,20.88
2019-04-14T16:29:21.553Z,18.52
2019-04-14T16:32:25.567Z,19.25
2019-04-14T16:35:08.812Z,20.23
2019-04-14T16:37:36.979Z,20.65
2019-04-14T16:40:06.601Z,20.55
2019-04-14T16:42:35.643Z,20.65
2019-04-14T16:45:07.040Z,19.70
2019-04-14T16:47:36.565Z,28.07
2019-04-14T16:50:05.945Z,19.80
2019-04-14T16:53:09.687Z,21.37
2019-04-14T16:55:58.481Z,19.02
2019-04-14T16:58:48.405Z,19.07
2019-04-14T17:01:22.381Z,22.27
2019-04-14T17:03:51.507Z,20.55
2019-04-14T17:06:20.714Z,19.52
2019-04-14T17:08:49.722Z,20.72
2019-04-14T17:11:18.832Z,18.57
2019-04-14T17:13:57.580Z,17.87
2019-04-14T17:16:52.240Z,18.55
2019-04-14T17:22:16.094Z,18.90
2019-04-14T17:25:07.872Z,20.45
2019-04-14T17:27:44.772Z,22.37
2019-04-14T17:30:34.068Z,20.92
2019-04-14T17:33:19.890Z,21.10
2019-04-14T17:35:53.910Z,17.90
2019-04-14T17:41:34.371Z,19.30
2019-04-14T17:44:09.326Z,21.07
2019-04-14T17:46:58.547Z,21.75
2019-04-14T17:52:42.397Z,18.80
2019-04-14T17:55:23.935Z,17.85
2019-04-14T17:57:58.852Z,17.35
2019-04-14T18:01:05.823Z,17.52
2019-04-14T18:04:03.490Z,18.25
2019-04-14T18:06:54.970Z,18.05
2019-04-14T18:09:55.743Z,18.50
2019-04-14T18:12:46.341Z,19.82
2019-04-14T18:15:47.287Z,20.15
2019-04-14T18:18:34.790Z,19.55
2019-04-14T18:21:06.166Z,17.62
2019-04-14T18:23:35.408Z,18.65
2019-04-14T18:26:04.515Z,18.05
2019-04-14T18:28:52.406Z,20.50
2019-04-14T18:31:41.251Z,20.85
2019-04-14T18:34:32.897Z,20.57
2019-04-14T18:37:20.507Z,24.77
2019-04-14T18:40:06.204Z,31.07
2019-04-14T18:42:59.112Z,26.90
2019-04-14T18:45:32.486Z,18.70
2019-04-14T18:48:24.049Z,19.42
2019-04-14T18:51:20.487Z,16.20
2019-04-14T18:54:03.730Z,16.15
2019-04-14T18:56:51.077Z,17.12
2019-04-14T18:59:41.562Z,19.52
2019-04-14T19:02:13.921Z,19.60
2019-04-14T19:04:43.018Z,18.60
2019-04-14T19:07:13.508Z,16.77
2019-04-14T19:09:43.181Z,16.02
2019-04-14T19:12:44.125Z,14.20
2019-04-14T19:15:28.834Z,12.15
2019-04-14T19:18:19.476Z,12.85
2019-04-14T19:20:53.583Z,12.13
2019-04-14T19:25:51.588Z,12.50
2019-04-14T19:28:20.684Z,16.30
2019-04-14T19:30:49.783Z,15.53
2019-04-14T19:33:18.916Z,29.95
2019-04-14T19:35:47.986Z,16.93
2019-04-14T19:38:17.185Z,13.40
2019-04-14T19:40:46.453Z,11.00
2019-04-14T19:43:23.562Z,15.63
2019-04-14T19:45:46.586Z,15.55
2019-04-14T19:48:15.863Z,18.30
2019-04-14T19:50:45.140Z,14.80
2019-04-14T19:53:14.261Z,12.98
2019-04-14T19:55:43.476Z,13.60
2019-04-14T19:58:12.642Z,14.50
2019-04-14T20:00:42.953Z,14.58
2019-04-14T20:03:12.154Z,15.48
2019-04-14T20:05:41.358Z,15.05
2019-04-14T20:08:10.480Z,18.30
2019-04-14T20:10:41.371Z,16.12
2019-04-14T20:13:10.520Z,14.45
2019-04-14T20:16:02.628Z,19.62
2019-04-14T20:18:50.187Z,14.23
2019-04-14T20:21:29.057Z,13.93
2019-04-14T20:24:06.240Z,15.10
2019-04-14T20:27:04.946Z,12.73
2019-04-14T20:29:39.130Z,15.25
2019-04-14T20:32:23.117Z,14.65
2019-04-14T20:34:53.547Z,17.75
2019-04-14T20:37:22.683Z,18.05
2019-04-14T20:39:51.828Z,17.73
2019-04-14T20:42:21.043Z,15.03
2019-04-14T20:44:50.075Z,18.87
2019-04-14T20:47:19.232Z,16.67
2019-04-14T20:49:49.815Z,14.50
2019-04-14T20:52:18.970Z,19.73
2019-04-14T20:54:48.000Z,19.48
2019-04-14T20:57:17.060Z,16.55
2019-04-14T20:59:46.228Z,24.12
2019-04-14T21:02:46.931Z,16.87
2019-04-14T21:05:34.396Z,16.52
2019-04-14T21:08:32.172Z,16.35
2019-04-14T21:11:15.853Z,17.10
2019-04-14T21:14:13.255Z,17.87
2019-04-14T21:16:56.965Z,17.00
2019-04-14T21:19:43.765Z,16.77
2019-04-14T21:22:32.270Z,17.87
2019-04-14T21:25:21.002Z,17.85
2019-04-14T21:28:03.156Z,18.65
2019-04-14T21:30:44.177Z,15.65
2019-04-14T21:33:24.042Z,30.35
2019-04-14T21:36:13.275Z,18.30
2019-04-14T21:39:00.689Z,15.05
2019-04-14T21:41:30.177Z,16.70
2019-04-14T21:43:59.227Z,16.57
2019-04-14T21:46:28.335Z,16.73
2019-04-14T21:48:57.377Z,14.95
2019-04-14T21:51:46.088Z,15.03
2019-04-14T21:54:15.709Z,15.78
2019-04-14T21:56:46.840Z,16.62
2019-04-14T21:59:23.005Z,16.87
2019-04-14T22:02:15.666Z,18.17
2019-04-14T22:05:10.426Z,17.75
2019-04-14T22:08:08.191Z,17.87
2019-04-14T22:10:40.218Z,17.48
2019-04-14T22:13:09.284Z,19.25
2019-04-14T22:15:38.377Z,20.82
2019-04-14T22:18:07.716Z,18.42
2019-04-14T22:20:36.829Z,17.15
2019-04-14T22:23:10.066Z,18.57
2019-04-14T22:25:39.215Z,16.90
2019-04-14T22:28:08.345Z,20.65
2019-04-14T22:30:37.427Z,19.52
2019-04-14T22:33:06.480Z,19.17
2019-04-14T22:35:37.537Z,18.30
2019-04-14T22:38:06.602Z,18.82
2019-04-14T22:40:35.787Z,19.77
2019-04-14T22:43:04.879Z,19.02
2019-04-14T22:45:34.211Z,18.80
2019-04-14T22:48:03.641Z,19.60
2019-04-14T22:50:33.170Z,20.70
2019-04-14T22:53:02.256Z,22.37
2019-04-14T22:55:32.680Z,22.60
2019-04-14T22:58:01.802Z,22.20
2019-04-14T23:00:47.755Z,18.70
2019-04-14T23:03:33.672Z,21.30
2019-04-14T23:06:25.029Z,20.62
2019-04-14T23:09:13.293Z,20.37
2019-04-14T23:11:50.138Z,20.23
2019-04-14T23:14:38.644Z,18.40
2019-04-14T23:17:45.640Z,21.05
2019-04-14T23:20:18.220Z,20.17
2019-04-14T23:23:06.884Z,20.35
2019-04-14T23:25:36.988Z,22.00
2019-04-14T23:28:06.074Z,24.32
2019-04-14T23:30:35.128Z,22.80
2019-04-14T23:33:04.365Z,22.32
2019-04-14T23:35:33.414Z,23.27
2019-04-14T23:38:02.441Z,23.87
2019-04-14T23:40:33.242Z,24.87
2019-04-14T23:43:02.320Z,26.57
2019-04-14T23:45:31.323Z,30.17
2019-04-14T23:48:00.462Z,26.97
2019-04-14T23:50:29.830Z,26.00
2019-04-14T23:52:58.804Z,30.97
2019-04-14T23:55:27.871Z,26.27
2019-04-14T23:57:57.217Z,26.12
